createdAt,value
2022-09-21T00:01:09.259Z,101065.16
2022-09-21T00:03:36.915Z,101066.09
2022-09-21T00:06:14.932Z,101064.97
2022-09-21T00:08:41.629Z,101063.50
2022-09-21T00:11:11.494Z,101066.91
2022-09-21T00:13:38.232Z,101066.09
2022-09-21T00:16:09.212Z,101060.31
2022-09-21T00:18:36.337Z,101070.81
2022-09-21T00:21:08.215Z,101073.09
2022-09-21T00:23:36.056Z,101078.41
2022-09-21T00:26:28.872Z,101077.81
2022-09-21T00:28:58.229Z,101072.41
2022-09-21T00:31:25.771Z,101083.25
2022-09-21T00:33:52.972Z,101076.16
2022-09-21T00:36:22.357Z,101080.28
2022-09-21T00:38:57.784Z,101081.41
2022-09-21T00:41:25.805Z,101085.94
2022-09-21T00:44:18.124Z,101078.28
2022-09-21T00:46:46.557Z,101081.44
2022-09-21T00:49:13.637Z,101084.16
2022-09-21T00:51:41.311Z,101086.19
2022-09-21T00:54:14.636Z,101089.53
2022-09-21T00:56:43.027Z,101090.91
2022-09-21T00:59:10.577Z,101090.66
2022-09-21T01:01:38.323Z,101089.53
2022-09-21T01:04:07.029Z,101085.81
2022-09-21T01:06:35.103Z,101092.22
2022-09-21T01:09:01.661Z,101087.72
2022-09-21T01:11:34.311Z,101091.13
2022-09-21T01:14:11.453Z,101088.19
2022-09-21T01:16:56.531Z,101087.03
2022-09-21T01:19:40.320Z,101087.84
2022-09-21T01:22:32.889Z,101092.00
2022-09-21T01:25:32.985Z,101090.53
2022-09-21T01:28:30.241Z,101092.22
2022-09-21T01:31:00.512Z,101098.63
2022-09-21T01:33:43.991Z,101096.03
2022-09-21T01:36:16.415Z,101099.22
2022-09-21T01:38:51.133Z,101095.69
2022-09-21T01:41:22.820Z,101095.34
2022-09-21T01:44:02.810Z,101093.88
2022-09-21T01:46:32.496Z,101093.63
2022-09-21T01:49:05.367Z,101097.78
2022-09-21T01:51:34.105Z,101090.00
2022-09-21T01:54:13.241Z,101094.38
2022-09-21T01:56:50.299Z,101096.03
2022-09-21T01:59:28.040Z,101087.81
2022-09-21T02:02:02.354Z,101088.94
2022-09-21T02:04:29.030Z,101095.16
2022-09-21T02:06:55.784Z,101100.00
2022-09-21T02:09:24.058Z,101097.91
2022-09-21T02:11:50.458Z,101096.47
2022-09-21T02:14:22.361Z,101096.66
2022-09-21T02:16:48.725Z,101104.78
2022-09-21T02:19:26.783Z,101096.56
2022-09-21T02:22:04.022Z,101096.88
2022-09-21T02:24:35.635Z,101103.16
2022-09-21T02:27:10.862Z,101099.13
2022-09-21T02:29:40.184Z,101092.13
2022-09-21T02:32:12.288Z,101094.38
2022-09-21T02:34:50.226Z,101095.50
2022-09-21T02:37:26.980Z,101092.13
2022-09-21T02:40:03.121Z,101097.88
2022-09-21T02:42:37.803Z,101099.31
2022-09-21T02:45:24.862Z,101101.72
2022-09-21T02:47:59.368Z,101104.06
2022-09-21T02:50:38.859Z,101105.19
2022-09-21T02:53:08.348Z,101113.78
2022-09-21T02:55:35.048Z,101112.19
2022-09-21T02:58:08.346Z,101115.88
2022-09-21T03:00:36.439Z,101117.97
2022-09-21T03:03:17.160Z,101121.16
2022-09-21T03:05:48.621Z,101118.91
2022-09-21T03:08:16.303Z,101122.44
2022-09-21T03:10:42.942Z,101128.06
2022-09-21T03:13:09.822Z,101125.00
2022-09-21T03:15:37.817Z,101127.72
2022-09-21T03:18:05.844Z,101128.91
2022-09-21T03:20:33.583Z,101126.22
2022-09-21T03:23:00.695Z,101133.88
2022-09-21T03:25:28.280Z,101136.31
2022-09-21T03:27:55.440Z,101147.72
2022-09-21T03:30:23.091Z,101151.81
2022-09-21T03:32:51.205Z,101158.06
2022-09-21T03:35:19.440Z,101166.13
2022-09-21T03:37:48.968Z,101178.19
2022-09-21T03:40:16.719Z,101171.66
2022-09-21T03:42:44.857Z,101176.19
2022-09-21T03:45:12.814Z,101185.78
2022-09-21T03:47:40.297Z,101180.97
2022-09-21T03:50:10.215Z,101183.06
2022-09-21T03:52:37.821Z,101190.66
2022-09-21T03:55:06.541Z,101182.63
2022-09-21T03:57:34.360Z,101193.56
2022-09-21T04:00:03.638Z,101189.59
2022-09-21T04:02:30.397Z,101193.44
2022-09-21T04:04:56.817Z,101196.81
2022-09-21T04:07:23.382Z,101204.91
2022-09-21T04:09:49.815Z,101208.75
2022-09-21T04:12:16.297Z,101202.91
2022-09-21T04:14:42.700Z,101210.69
2022-09-21T04:17:09.076Z,101214.44
2022-09-21T04:19:35.478Z,101218.31
2022-09-21T04:22:01.871Z,101220.44
2022-09-21T04:24:28.273Z,101229.03
2022-09-21T04:26:54.720Z,101223.69
2022-09-21T04:29:21.410Z,101236.19
2022-09-21T04:31:47.901Z,101238.13
2022-09-21T04:34:14.390Z,101240.56
2022-09-21T04:36:40.844Z,101244.97
2022-09-21T04:39:07.452Z,101243.31
2022-09-21T04:41:34.114Z,101252.22
2022-09-21T04:44:01.376Z,101259.31
2022-09-21T04:46:27.860Z,101254.03
2022-09-21T04:48:54.312Z,101257.59
2022-09-21T04:51:20.749Z,101255.22
2022-09-21T04:53:47.133Z,101263.56
2022-09-21T04:56:15.707Z,101263.00
2022-09-21T04:58:42.574Z,101273.84
2022-09-21T05:01:09.012Z,101274.28
2022-09-21T05:03:35.596Z,101281.31
2022-09-21T05:06:02.512Z,101276.66
2022-09-21T05:08:47.745Z,101285.22
2022-09-21T05:11:17.059Z,101289.38
2022-09-21T05:13:43.525Z,101288.56
2022-09-21T05:16:10.061Z,101296.47
2022-09-21T05:18:36.877Z,101293.81
2022-09-21T05:21:04.725Z,101301.44
2022-09-21T05:23:31.905Z,101306.63
2022-09-21T05:25:59.740Z,101307.25
2022-09-21T05:28:26.912Z,101313.44
2022-09-21T05:31:18.079Z,101315.13
2022-09-21T05:33:52.375Z,101303.81
2022-09-21T05:36:40.016Z,101306.56
2022-09-21T05:39:07.263Z,101308.09
2022-09-21T05:41:34.309Z,101311.44
2022-09-21T05:44:01.490Z,101320.94
2022-09-21T05:46:51.671Z,101316.91
2022-09-21T05:49:38.190Z,101310.69
2022-09-21T05:52:05.163Z,101311.81
2022-09-21T05:55:00.376Z,101316.31
2022-09-21T05:57:53.012Z,101308.78
2022-09-21T06:00:22.166Z,101312.03
2022-09-21T06:03:26.215Z,101334.75
2022-09-21T06:05:52.759Z,101323.19
2022-09-21T06:08:19.206Z,101331.44
2022-09-21T06:10:45.837Z,101339.22
2022-09-21T06:13:12.266Z,101336.53
2022-09-21T06:15:38.930Z,101341.81
2022-09-21T06:18:06.349Z,101341.28
2022-09-21T06:20:32.977Z,101341.66
2022-09-21T06:23:08.882Z,101344.25
2022-09-21T06:25:35.690Z,101350.03
2022-09-21T06:28:10.216Z,101348.00
2022-09-21T06:30:39.029Z,101365.66
2022-09-21T06:33:06.987Z,101362.53
2022-09-21T06:35:35.143Z,101370.72
2022-09-21T06:38:07.390Z,101372.00
2022-09-21T06:40:37.059Z,101381.34
2022-09-21T06:43:05.265Z,101380.22
2022-09-21T06:45:31.893Z,101377.50
2022-09-21T06:47:58.561Z,101377.84
2022-09-21T06:50:25.396Z,101390.50
2022-09-21T06:52:51.835Z,101388.91
2022-09-21T06:55:18.404Z,101378.66
2022-09-21T06:57:44.929Z,101388.97
2022-09-21T07:00:12.889Z,101385.16
2022-09-21T07:02:43.587Z,101380.78
2022-09-21T07:05:10.186Z,101387.09
2022-09-21T07:07:36.825Z,101395.50
2022-09-21T07:10:14.363Z,101389.59
2022-09-21T07:12:41.924Z,101392.53
2022-09-21T07:15:12.487Z,101395.59
2022-09-21T07:17:40.075Z,101396.63
2022-09-21T07:20:07.997Z,101397.53
2022-09-21T07:22:35.145Z,101398.19
2022-09-21T07:25:01.898Z,101398.19
2022-09-21T07:27:30.204Z,101401.47
2022-09-21T07:29:56.672Z,101406.66
2022-09-21T07:32:23.226Z,101401.97
2022-09-21T07:34:49.634Z,101406.13
2022-09-21T07:37:16.308Z,101413.09
2022-09-21T07:39:42.757Z,101407.91
2022-09-21T07:42:09.209Z,101414.16
2022-09-21T07:44:35.630Z,101427.06
2022-09-21T07:47:03.321Z,101432.22
2022-09-21T07:49:30.905Z,101423.53
2022-09-21T07:52:01.439Z,101436.94
2022-09-21T07:54:30.227Z,101439.94
2022-09-21T07:57:15.325Z,101442.97
2022-09-21T07:59:41.722Z,101450.91
2022-09-21T08:02:08.205Z,101446.00
2022-09-21T08:04:34.710Z,101457.94
2022-09-21T08:07:01.121Z,101460.66
2022-09-21T08:09:27.512Z,101465.59
2022-09-21T08:11:55.736Z,101470.31
2022-09-21T08:14:26.136Z,101481.47
2022-09-21T08:16:53.538Z,101486.44
2022-09-21T08:19:20.374Z,101484.00
2022-09-21T08:21:53.527Z,101496.72
2022-09-21T08:24:22.843Z,101497.09
2022-09-21T08:26:52.204Z,101499.19
2022-09-21T08:29:19.173Z,101496.78
2022-09-21T08:31:46.714Z,101503.97
2022-09-21T08:34:14.152Z,101497.63
2022-09-21T08:36:40.937Z,101501.16
2022-09-21T08:39:09.012Z,101509.44
2022-09-21T08:42:00.115Z,101514.50
2022-09-21T08:44:39.543Z,101505.03
2022-09-21T08:47:21.671Z,101508.78
2022-09-21T08:49:53.826Z,101511.53
2022-09-21T08:52:24.867Z,101512.66
2022-09-21T08:54:51.201Z,101510.88
2022-09-21T08:57:18.809Z,101500.00
2022-09-21T08:59:47.939Z,101504.66
2022-09-21T09:02:53.053Z,101501.81
2022-09-21T09:05:44.328Z,101493.75
2022-09-21T09:08:47.810Z,101489.06
2022-09-21T09:11:46.219Z,101495.22
2022-09-21T09:14:30.725Z,101497.44
2022-09-21T09:17:05.312Z,101501.97
2022-09-21T09:19:40.831Z,101492.88
2022-09-21T09:22:13.500Z,101497.16
2022-09-21T09:24:48.158Z,101497.63
2022-09-21T09:27:34.923Z,101494.50
2022-09-21T09:30:18.884Z,101493.81
2022-09-21T09:33:05.441Z,101489.84
2022-09-21T09:35:40.220Z,101488.75
2022-09-21T09:38:12.746Z,101482.66
2022-09-21T09:41:10.003Z,101481.72
2022-09-21T09:43:50.836Z,101482.38
2022-09-21T09:46:20.141Z,101467.38
2022-09-21T09:49:05.457Z,101464.31
2022-09-21T09:51:35.111Z,101456.75
2022-09-21T09:54:01.559Z,101464.19
2022-09-21T09:56:28.491Z,101458.19
2022-09-21T09:58:59.594Z,101455.13
2022-09-21T10:01:46.433Z,101454.31
2022-09-21T10:04:18.017Z,101459.59
2022-09-21T10:06:46.699Z,101453.75
2022-09-21T10:09:31.020Z,101453.78
2022-09-21T10:12:06.855Z,101445.03
2022-09-21T10:14:36.163Z,101440.88
2022-09-21T10:17:07.564Z,101438.91
2022-09-21T10:19:34.110Z,101431.25
2022-09-21T10:22:03.936Z,101431.38
2022-09-21T10:24:37.261Z,101432.53
2022-09-21T10:27:06.257Z,101427.75
2022-09-21T10:29:41.026Z,101424.03
2022-09-21T10:32:14.773Z,101416.56
2022-09-21T10:34:59.590Z,101427.13
2022-09-21T10:37:41.222Z,101425.13
2022-09-21T10:40:19.840Z,101427.78
2022-09-21T10:42:49.249Z,101426.34
2022-09-21T10:45:21.482Z,101430.13
2022-09-21T10:47:52.267Z,101429.56
2022-09-21T10:50:30.234Z,101423.81
2022-09-21T10:53:24.416Z,101428.03
2022-09-21T10:56:11.896Z,101423.00
2022-09-21T10:59:10.780Z,101423.41
2022-09-21T11:01:43.549Z,101418.75
2022-09-21T11:04:16.489Z,101417.34
2022-09-21T11:06:52.265Z,101413.25
2022-09-21T11:09:26.627Z,101412.53
2022-09-21T11:12:07.074Z,101416.28
2022-09-21T11:14:56.232Z,101418.75
2022-09-21T11:17:43.546Z,101418.16
2022-09-21T11:20:19.013Z,101414.44
2022-09-21T11:22:45.494Z,101408.94
2022-09-21T11:25:31.008Z,101416.75
2022-09-21T11:28:17.655Z,101411.91
2022-09-21T11:31:02.435Z,101407.47
2022-09-21T11:33:48.781Z,101403.53
2022-09-21T11:36:30.687Z,101406.84
2022-09-21T11:39:09.213Z,101402.13
2022-09-21T11:42:00.600Z,101398.78
2022-09-21T11:44:46.401Z,101400.78
2022-09-21T11:47:56.715Z,101392.75
2022-09-21T11:53:26.969Z,101398.94
2022-09-21T11:56:31.747Z,101397.78
2022-09-21T11:59:32.932Z,101389.03
2022-09-21T12:01:59.222Z,101391.44
2022-09-21T12:04:49.643Z,101389.34
2022-09-21T12:07:50.339Z,101382.66
2022-09-21T12:10:40.034Z,101378.88
2022-09-21T12:13:11.787Z,101378.59
2022-09-21T12:16:20.100Z,101377.69
2022-09-21T12:19:20.332Z,101373.00
2022-09-21T12:21:51.019Z,101372.50
2022-09-21T12:24:31.849Z,101361.94
2022-09-21T12:27:05.743Z,101361.47
2022-09-21T12:29:44.632Z,101364.19
2022-09-21T12:32:11.922Z,101357.78
2022-09-21T12:34:47.069Z,101353.72
2022-09-21T12:37:32.482Z,101354.34
2022-09-21T12:40:23.357Z,101348.66
2022-09-21T12:43:01.729Z,101352.38
2022-09-21T12:45:40.515Z,101348.28
2022-09-21T12:48:31.709Z,101348.03
2022-09-21T12:51:29.811Z,101343.53
2022-09-21T12:54:00.680Z,101336.56
2022-09-21T12:56:43.211Z,101336.81
2022-09-21T12:59:26.645Z,101341.16
2022-09-21T13:01:59.225Z,101342.81
2022-09-21T13:04:49.812Z,101334.75
2022-09-21T13:07:34.943Z,101329.22
2022-09-21T13:10:14.231Z,101329.22
2022-09-21T13:12:44.948Z,101331.22
2022-09-21T13:15:17.373Z,101326.94
2022-09-21T13:17:44.682Z,101327.31
2022-09-21T13:20:22.879Z,101331.91
2022-09-21T13:22:58.071Z,101330.09
2022-09-21T13:25:28.178Z,101320.25
2022-09-21T13:28:13.180Z,101318.19
2022-09-21T13:30:41.410Z,101318.00
2022-09-21T13:33:20.177Z,101311.81
2022-09-21T13:35:47.998Z,101313.56
2022-09-21T13:38:37.229Z,101315.19
2022-09-21T13:41:19.423Z,101319.63
2022-09-21T13:43:58.566Z,101310.16
2022-09-21T13:46:57.144Z,101306.91
2022-09-21T13:49:33.604Z,101306.63
2022-09-21T13:52:07.303Z,101301.69
2022-09-21T13:54:39.798Z,101297.78
2022-09-21T13:57:28.244Z,101302.41
2022-09-21T14:00:29.513Z,101302.09
2022-09-21T14:03:07.157Z,101305.81
2022-09-21T14:05:44.158Z,101309.00
2022-09-21T14:08:16.552Z,101304.66
2022-09-21T14:11:05.529Z,101305.69
2022-09-21T14:13:43.848Z,101307.06
2022-09-21T14:16:29.136Z,101298.16
2022-09-21T14:18:56.369Z,101295.09
2022-09-21T14:21:22.988Z,101292.31
2022-09-21T14:24:19.853Z,101290.59
2022-09-21T14:26:55.945Z,101288.97
2022-09-21T14:29:53.106Z,101294.25
2022-09-21T14:32:23.575Z,101289.13
2022-09-21T14:34:57.116Z,101289.84
2022-09-21T14:37:34.255Z,101282.25
2022-09-21T14:40:06.666Z,101270.66
2022-09-21T14:42:33.485Z,101276.16
2022-09-21T14:45:03.613Z,101282.03
2022-09-21T14:47:29.962Z,101287.47
2022-09-21T14:50:20.506Z,101280.78
2022-09-21T14:53:09.344Z,101282.75
2022-09-21T14:56:10.233Z,101279.25
2022-09-21T14:58:46.577Z,101266.72
2022-09-21T15:01:33.957Z,101272.53
2022-09-21T15:04:37.265Z,101266.31
2022-09-21T15:07:34.806Z,101268.59
2022-09-21T15:10:29.064Z,101270.41
2022-09-21T15:13:05.090Z,101269.38
2022-09-21T15:16:11.265Z,101273.66
2022-09-21T15:18:41.778Z,101274.06
2022-09-21T15:21:24.136Z,101268.56
2022-09-21T15:23:53.116Z,101263.53
2022-09-21T15:26:29.786Z,101275.16
2022-09-21T15:29:10.262Z,101272.72
2022-09-21T15:31:38.640Z,101268.94
2022-09-21T15:34:06.757Z,101272.50
2022-09-21T15:36:38.744Z,101265.97
2022-09-21T15:39:05.922Z,101265.34
2022-09-21T15:41:49.028Z,101271.94
2022-09-21T15:44:18.666Z,101266.59
2022-09-21T15:47:00.419Z,101273.13
2022-09-21T15:49:29.642Z,101267.31
2022-09-21T15:52:01.367Z,101271.41
2022-09-21T15:54:41.559Z,101263.00
2022-09-21T15:57:29.243Z,101269.50
2022-09-21T15:59:56.198Z,101267.72
2022-09-21T16:02:27.148Z,101267.41
2022-09-21T16:04:53.579Z,101271.13
2022-09-21T16:07:28.714Z,101269.13
2022-09-21T16:09:55.183Z,101269.75
2022-09-21T16:12:42.189Z,101276.22
2022-09-21T16:15:31.949Z,101276.19
2022-09-21T16:18:05.055Z,101286.81
2022-09-21T16:21:07.387Z,101285.34
2022-09-21T16:23:33.880Z,101282.34
2022-09-21T16:26:01.562Z,101282.69
2022-09-21T16:28:39.524Z,101283.91
2022-09-21T16:31:30.228Z,101287.94
2022-09-21T16:34:01.801Z,101300.72
2022-09-21T16:36:34.503Z,101294.50
2022-09-21T16:39:06.349Z,101295.22
2022-09-21T16:41:36.393Z,101300.16
2022-09-21T16:44:03.736Z,101294.09
2022-09-21T16:46:32.023Z,101296.72
2022-09-21T16:49:00.711Z,101299.94
2022-09-21T16:51:28.476Z,101299.84
2022-09-21T16:53:56.565Z,101300.66
2022-09-21T16:56:23.826Z,101300.16
2022-09-21T16:58:50.270Z,101297.16
2022-09-21T17:01:20.499Z,101292.38
2022-09-21T17:03:47.906Z,101305.41
2022-09-21T17:06:20.382Z,101298.41
2022-09-21T17:08:48.804Z,101306.84
2022-09-21T17:11:23.211Z,101306.44
2022-09-21T17:13:50.799Z,101303.63
2022-09-21T17:16:19.461Z,101307.84
2022-09-21T17:18:47.126Z,101308.16
2022-09-21T17:21:15.069Z,101318.97
2022-09-21T17:23:42.348Z,101317.06
2022-09-21T17:26:19.172Z,101309.84
2022-09-21T17:28:45.922Z,101317.25
2022-09-21T17:31:14.263Z,101316.63
2022-09-21T17:33:41.390Z,101322.38
2022-09-21T17:36:13.412Z,101320.47
2022-09-21T17:38:39.878Z,101322.44
2022-09-21T17:41:18.065Z,101324.84
2022-09-21T17:43:54.984Z,101326.44
2022-09-21T17:46:41.458Z,101332.84
2022-09-21T17:49:10.442Z,101327.91
2022-09-21T17:51:55.555Z,101335.31
2022-09-21T17:54:22.195Z,101337.22
2022-09-21T17:56:54.222Z,101333.38
2022-09-21T17:59:34.831Z,101338.41
2022-09-21T18:02:02.618Z,101347.00
2022-09-21T18:04:34.901Z,101354.28
2022-09-21T18:07:02.712Z,101349.09
2022-09-21T18:09:29.351Z,101350.97
2022-09-21T18:12:04.941Z,101357.34
2022-09-21T18:14:40.440Z,101360.19
2022-09-21T18:17:15.938Z,101376.19
2022-09-21T18:20:03.780Z,101370.03
2022-09-21T18:22:33.468Z,101370.97
2022-09-21T18:25:01.095Z,101380.03
2022-09-21T18:27:27.835Z,101382.03
2022-09-21T18:29:54.439Z,101383.97
2022-09-21T18:32:39.641Z,101382.41
2022-09-21T18:35:31.397Z,101392.03
2022-09-21T18:38:19.578Z,101392.16
2022-09-21T18:41:14.946Z,101395.47
2022-09-21T18:44:04.406Z,101398.63
2022-09-21T18:46:51.074Z,101396.56
2022-09-21T18:49:46.039Z,101400.09
2022-09-21T18:52:37.284Z,101400.88
2022-09-21T18:55:11.635Z,101410.94
2022-09-21T18:57:38.266Z,101410.94
2022-09-21T19:00:05.313Z,101407.66
2022-09-21T19:02:31.946Z,101413.19
2022-09-21T19:04:59.153Z,101410.13
2022-09-21T19:07:39.610Z,101410.81
2022-09-21T19:10:19.074Z,101419.06
2022-09-21T19:13:10.025Z,101418.41
2022-09-21T19:16:00.887Z,101428.59
2022-09-21T19:18:50.698Z,101429.25
2022-09-21T19:21:50.005Z,101423.91
2022-09-21T19:24:31.354Z,101423.56
2022-09-21T19:27:00.374Z,101425.91
2022-09-21T19:29:35.205Z,101425.13
2022-09-21T19:32:01.728Z,101427.09
2022-09-21T19:34:28.346Z,101437.94
2022-09-21T19:36:57.230Z,101438.63
2022-09-21T19:39:23.984Z,101431.59
2022-09-21T19:41:54.528Z,101444.50
2022-09-21T19:44:47.968Z,101443.78
2022-09-21T19:47:29.320Z,101441.28
2022-09-21T19:50:03.980Z,101446.84
2022-09-21T19:52:34.838Z,101447.28
2022-09-21T19:55:20.626Z,101445.47
2022-09-21T19:58:05.984Z,101450.25
2022-09-21T20:00:32.613Z,101442.31
2022-09-21T20:03:13.728Z,101453.91
2022-09-21T20:05:47.837Z,101451.94
2022-09-21T20:08:46.109Z,101448.78
2022-09-21T20:11:17.362Z,101449.53
2022-09-21T20:13:56.856Z,101451.25
2022-09-21T20:16:33.644Z,101449.84
2022-09-21T20:19:19.064Z,101447.63
2022-09-21T20:21:48.569Z,101452.13
2022-09-21T20:24:21.200Z,101453.97
2022-09-21T20:26:53.215Z,101449.44
2022-09-21T20:29:20.256Z,101455.56
2022-09-21T20:31:52.506Z,101451.72
2022-09-21T20:34:20.533Z,101461.25
2022-09-21T20:36:46.979Z,101465.75
2022-09-21T20:39:13.595Z,101462.63
2022-09-21T20:41:40.188Z,101473.03
2022-09-21T20:44:11.617Z,101465.75
2022-09-21T20:46:38.013Z,101468.91
2022-09-21T20:49:08.065Z,101468.41
2022-09-21T20:51:35.766Z,101474.47
2022-09-21T20:54:03.416Z,101476.78
2022-09-21T20:56:30.747Z,101477.66
2022-09-21T20:58:57.221Z,101481.66
2022-09-21T21:01:24.692Z,101477.44
2022-09-21T21:03:51.322Z,101490.03
2022-09-21T21:06:18.693Z,101487.31
2022-09-21T21:08:46.071Z,101487.97
2022-09-21T21:11:14.239Z,101498.66
2022-09-21T21:13:41.024Z,101498.81
2022-09-21T21:16:11.833Z,101496.97
2022-09-21T21:18:43.660Z,101505.94
2022-09-21T21:21:10.011Z,101505.31
2022-09-21T21:24:11.940Z,101500.88
2022-09-21T21:27:00.762Z,101506.09
2022-09-21T21:29:24.784Z,101513.22
2022-09-21T21:31:51.501Z,101507.34
2022-09-21T21:34:17.943Z,101505.44
2022-09-21T21:36:44.413Z,101501.53
2022-09-21T21:39:11.213Z,101509.97
2022-09-21T21:41:37.990Z,101502.06
2022-09-21T21:44:04.797Z,101506.34
2022-09-21T21:46:31.283Z,101503.47
2022-09-21T21:48:57.766Z,101507.25
2022-09-21T21:51:24.213Z,101508.66
2022-09-21T21:53:51.059Z,101508.53
2022-09-21T21:56:18.721Z,101508.16
2022-09-21T21:58:45.097Z,101509.06
2022-09-21T22:01:20.830Z,101508.81
2022-09-21T22:03:51.590Z,101509.59
2022-09-21T22:06:18.028Z,101512.06
2022-09-21T22:08:44.409Z,101517.31
2022-09-21T22:11:11.132Z,101512.25
2022-09-21T22:13:39.465Z,101511.84
2022-09-21T22:16:12.077Z,101518.88
2022-09-21T22:18:39.013Z,101512.34
2022-09-21T22:21:16.439Z,101511.19
2022-09-21T22:23:43.687Z,101511.66
2022-09-21T22:26:16.140Z,101521.38
2022-09-21T22:28:47.944Z,101519.97
2022-09-21T22:31:17.765Z,101506.28
2022-09-21T22:33:44.928Z,101504.03
2022-09-21T22:36:17.416Z,101516.34
2022-09-21T22:38:44.407Z,101515.69
2022-09-21T22:41:12.168Z,101501.56
2022-09-21T22:43:39.389Z,101512.59
2022-09-21T22:46:07.278Z,101511.91
2022-09-21T22:48:34.037Z,101515.16
2022-09-21T22:51:01.953Z,101519.03
2022-09-21T22:53:28.573Z,101517.22
2022-09-21T22:56:06.970Z,101517.38
2022-09-21T22:58:35.544Z,101510.75
2022-09-21T23:01:14.818Z,101515.41
2022-09-21T23:03:41.905Z,101520.06
2022-09-21T23:06:11.727Z,101517.38
2022-09-21T23:08:38.943Z,101510.44
2022-09-21T23:11:18.028Z,101509.41
2022-09-21T23:13:44.447Z,101516.75
2022-09-21T23:16:12.893Z,101517.25
2022-09-21T23:18:40.157Z,101517.72
2022-09-21T23:21:11.582Z,101518.22
2022-09-21T23:23:38.248Z,101511.00
2022-09-21T23:26:07.520Z,101512.88
2022-09-21T23:28:35.309Z,101513.91
2022-09-21T23:31:04.251Z,101508.63
2022-09-21T23:33:35.244Z,101513.59
2022-09-21T23:36:02.001Z,101510.28
2022-09-21T23:38:29.468Z,101509.72
2022-09-21T23:41:22.281Z,101522.16
2022-09-21T23:43:49.080Z,101517.88
2022-09-21T23:46:18.411Z,101516.03
2022-09-21T23:48:46.385Z,101515.50
2022-09-21T23:51:13.235Z,101504.66
2022-09-21T23:53:40.781Z,101513.19
2022-09-21T23:56:08.567Z,101520.78
2022-09-21T23:58:35.245Z,101511.78
